This is the latest recevied weather packets stored in our database for station/object N7ZAP. If no packets are shown the sender has not sent any weather packets the latest 10 day(s).
| Time | Temp. | Humidity | Pressure | Rain* | Wind** | Luminosity | Snow |
|---|---|---|---|---|---|---|---|
| 1777665936 | 20° C | 33% | 1017 hPa | 0 mm | - | - | - |
| 1777665633 | 18.89° C | 38% | 1017.3 hPa | 0 mm | - | - | - |
| 1777665331 | 18.33° C | 36% | 1017.3 hPa | 0 mm | - | - | - |
| 1777665026 | 18.33° C | 38% | 1017.5 hPa | 0 mm | - | - | - |
| 1777664722 | 17.78° C | 38% | 1017.2 hPa | 0 mm | - | - | - |
| 1777664418 | 18.89° C | 38% | 1017.5 hPa | 0 mm | - | - | - |
| 1777664116 | 18.89° C | 38% | 1017.5 hPa | 0 mm | - | - | - |
| 1777663814 | 18.33° C | 38% | 1017.4 hPa | 0 mm | - | - | - |
| 1777663510 | 17.78° C | 39% | 1017.5 hPa | 0 mm | - | - | - |
| 1777663208 | 17.78° C | 39% | 1017.6 hPa | 0 mm | - | - | - |
| 1777662905 | 17.78° C | 39% | 1017.8 hPa | 0 mm | - | - | - |
| 1777662602 | 18.33° C | 38% | 1017.7 hPa | 0 mm | - | - | - |
| 1777662297 | 17.78° C | 38% | 1017.8 hPa | 0 mm | - | - | - |
| 1777661993 | 17.78° C | 38% | 1018 hPa | 0 mm | - | - | - |
| 1777661689 | 17.78° C | 39% | 1018.2 hPa | 0 mm | - | - | - |
| 1777661386 | 16.67° C | 40% | 1018 hPa | 0 mm | - | - | - |
| 1777661082 | 17.22° C | 39% | 1018.1 hPa | 0 mm | - | - | - |
| 1777660776 | 18.33° C | 39% | 1018.3 hPa | 0 mm | - | - | - |
| 1777660474 | 18.89° C | 37% | 1018.3 hPa | 0 mm | - | - | - |
| 1777660170 | 17.22° C | 40% | 1018.2 hPa | 0 mm | - | - | - |
| 1777659867 | 17.78° C | 40% | 1018.2 hPa | 0 mm | - | - | - |
| 1777659564 | 18.33° C | 38% | 1018.4 hPa | 0 mm | - | - | - |
| 1777659261 | 17.78° C | 38% | 1018.3 hPa | 0 mm | - | - | - |
| 1777658958 | 16.67° C | 41% | 1018.3 hPa | 0 mm | - | - | - |
| 1777658655 | 16.67° C | 42% | 1018.5 hPa | 0 mm | - | - | - |
* Rain latest hour (hover to see other rain measurements)
** Current wind speed in m/s (hover to see current wind gust speed)